岩国 の空港の天気 - METARとTAF

岩国飛行場 ( RJOI / IWK ) - 山口県岩国市
飛行場実況気象(Metar)
観測時間10/20 12:55 JST (10/20 03:55 UTC)
風向・風速東 4m/s
視程10km以上
天気現象
少しの雲 雲底高度 610m
全天の8割程度の雲 雲底高度 7620m
気温23.9℃
湿度55%
気圧1018.1hPa
METARRJOI 200355Z 08008KT 9999 FEW020 BKN250 24/14 A3007 RMK SLP181 T02390144
過去の天気等 Google飛行場航空写真 Wunderground天気予報

過去48時間のMETAR

飛行場予報(TAF)
発表時間: -
20日6時 JST ~ 20日12時 JST に一時的に
風向・風速不定 3m/s
20日12時 JST から
風向・風速北東 5m/s 瞬間風速 8m/s
視程10km以上
全天の4割程度の雲 雲底高度 910m
全天の8割程度の雲 雲底高度 7620m
20日17時 JST から
風向・風速北東 5m/s 瞬間風速 8m/s
視程10km以上
少しの雲 雲底高度 910m
全天の8割程度の雲 雲底高度 7620m
20日21時 JST から
風向・風速北北東 5m/s 瞬間風速 8m/s
視程10km以上
少しの雲 雲底高度 910m
全天の8割程度の雲 雲底高度 7620m
21日3時 JST から
風向・風速北北東 5m/s 瞬間風速 8m/s
TAF RJOI 1921/2021 02011KT 9999 FEW015 SCT030 BKN250 510008 QNH3006INS
TEMPO 1921/2003 VRB06KT
FM200300 04010G15KT 9999 SCT030 BKN250 510008 QNH3003INS
FM200800 05010G15KT 9999 FEW030 BKN250 510008 QNH3004INS
FM201200 03010G15KT 9999 FEW030 BKN250 510008 QNH3001INS
FM201800 03010G15KT 99999 BKN250 510008 QNH2999INS T14/1921Z T23/2005Z
日本の空港のMETAR・TAFへのリンク

RJTT 東京国際空港
RJAA 新東京国際空港
RJBB 関西国際空港
RJOO 大阪空港
RJGG 中部国際空港
RJCC 新千歳空港
RJFF 福岡空港
ROAH 那覇空港


RJEC 旭川空港
RJCH 函館空港
RJCK 釧路空港
RJCM 女満別空港
RJCB 帯広空港
RJSA 青森空港
RJSS 仙台空港
RJSK 秋田空港
RJSF 福島空港
RJAH 茨城空港
RJSN 新潟空港
RJNT 富山空港
RJNK 小松飛行場
RJNS 静岡空港
RJOH 美保飛行場
RJOC 出雲空港
RJOB 岡山空港
RJOA 広島空港
RJOI 岩国飛行場
RJOT 高松空港
RJOM 松山空港
RJOK 高知空港
RJFR 北九州空港
RJFT 熊本空港
RJFU 長崎空港
RJFS 佐賀空港
RJFO 大分空港
RJFM 宮崎空港
RJFK 鹿児島空港
ROIG 石垣島空港
RJTY 横田飛行場
ROTM 普天間飛行場
RODN 嘉手納飛行場